Time;durP1;ratioP1;P1;durP2;ratioP2;P2;SDS_P1;SDS_P2;PMS_P1;PMS_P2;Temp;Humidity;BMP_temperature;BMP_pressure;BME280_temperature;BME280_humidity;BME280_pressure;Samples;Min_cycle;Max_cycle;Signal;HPM_P1;HPM_P2
2022/01/25 00:24:15;;;;;;;65.87;34.07;;;;;;;;;;5046546;28;20557;-68
2022/01/25 00:24:23;;;;;;;73.00;34.77;;;;;;;;;;5042709;28;21459;-67
2022/01/25 00:27:40;;;;;;;70.60;35.17;;;;;;;;;;5042917;28;20190;-67
2022/01/25 00:32:09;;;;;;;71.30;36.30;;;;;;;;;;5047565;28;20632;-68
2022/01/25 00:34:34;;;;;;;73.47;34.23;;;;;;;;;;5042089;28;20189;-68
2022/01/25 00:36:59;;;;;;;76.67;35.73;;;;;;;;;;5045300;28;20185;-68
2022/01/25 00:39:25;;;;;;;69.20;34.33;;;;;;;;;;5041394;28;20930;-68
2022/01/25 00:41:50;;;;;;;71.00;35.57;;;;;;;;;;5046468;28;20221;-66
2022/01/25 00:44:16;;;;;;;69.87;35.03;;;;;;;;;;5041725;28;20623;-67
2022/01/25 00:46:42;;;;;;;70.67;35.33;;;;;;;;;;5043921;28;20193;-68
2022/01/25 00:49:08;;;;;;;73.67;36.63;;;;;;;;;;5046288;28;20194;-68
2022/01/25 00:56:45;;;;;;;72.57;36.80;;;;;;;;;;5040109;28;20194;-68
2022/01/25 00:59:14;;;;;;;77.27;37.90;;;;;;;;;;5044212;28;20181;-69
2022/01/25 01:01:40;;;;;;;69.63;35.13;;;;;;;;;;5044631;28;20649;-66
2022/01/25 01:04:07;;;;;;;74.13;36.17;;;;;;;;;;5039707;28;20190;-67
2022/01/25 01:06:34;;;;;;;71.27;35.30;;;;;;;;;;5040687;28;20258;-68
2022/01/25 01:08:59;;;;;;;77.10;36.97;;;;;;;;;;5040387;28;20269;-67
2022/01/25 01:11:39;;;;;;;71.70;35.97;;;;;;;;;;5044130;28;20253;-68
2022/01/25 01:48:32;;;;;;;73.93;36.73;;;;;;;;;;5042080;28;20221;-67
2022/01/25 01:51:06;;;;;;;73.10;36.67;;;;;;;;;;5045200;28;20223;-67
2022/01/25 01:53:32;;;;;;;75.87;36.40;;;;;;;;;;5042385;28;20181;-68
2022/01/25 01:55:58;;;;;;;77.03;35.80;;;;;;;;;;5044282;28;20182;-68
2022/01/25 01:58:23;;;;;;;77.90;36.57;;;;;;;;;;5041229;28;20255;-68
2022/01/25 02:00:49;;;;;;;71.10;35.67;;;;;;;;;;5041471;28;20657;-69
2022/01/25 02:03:15;;;;;;;71.13;35.73;;;;;;;;;;5038130;28;20293;-69
2022/01/25 02:05:41;;;;;;;76.67;36.03;;;;;;;;;;5037168;28;20246;-68
2022/01/25 02:08:06;;;;;;;79.30;37.77;;;;;;;;;;5042925;28;20674;-67
2022/01/25 02:10:32;;;;;;;68.10;33.83;;;;;;;;;;5043589;28;20260;-67
2022/01/25 02:12:58;;;;;;;80.60;38.03;;;;;;;;;;5042379;28;20216;-72
2022/01/25 02:15:26;;;;;;;74.33;35.50;;;;;;;;;;5041551;28;20276;-67
2022/01/25 02:22:21;;;;;;;73.97;34.87;;;;;;;;;;5042556;28;20601;-67
2022/01/25 02:23:24;;;;;;;77.00;35.37;;;;;;;;;;5043082;28;20203;-68
2022/01/25 02:25:53;;;;;;;75.63;36.27;;;;;;;;;;5042477;28;20857;-68
2022/01/25 02:28:20;;;;;;;72.40;35.00;;;;;;;;;;5045296;28;20251;-68
2022/01/25 02:30:46;;;;;;;71.60;34.77;;;;;;;;;;5047329;28;20212;-68
2022/01/25 02:33:12;;;;;;;73.10;35.33;;;;;;;;;;5044757;28;20219;-68
2022/01/25 02:35:40;;;;;;;75.60;35.53;;;;;;;;;;5040701;28;20718;-68
2022/01/25 02:38:06;;;;;;;73.83;35.37;;;;;;;;;;5043236;28;20272;-68
2022/01/25 02:40:32;;;;;;;73.13;35.83;;;;;;;;;;5037089;28;20248;-68
2022/01/25 02:42:57;;;;;;;79.43;37.33;;;;;;;;;;5044899;28;20237;-68
2022/01/25 02:45:25;;;;;;;74.23;35.57;;;;;;;;;;5043937;28;20178;-68
2022/01/25 02:50:34;;;;;;;80.63;36.37;;;;;;;;;;5040435;28;20621;-67
2022/01/25 02:53:00;;;;;;;73.63;35.17;;;;;;;;;;5045342;28;20189;-68
2022/01/25 02:55:25;;;;;;;74.13;36.00;;;;;;;;;;5046458;28;20204;-67
2022/01/25 02:57:50;;;;;;;77.27;37.40;;;;;;;;;;5047192;28;20376;-67
2022/01/25 03:00:17;;;;;;;74.67;35.20;;;;;;;;;;5041338;28;20254;-67
2022/01/25 03:02:45;;;;;;;78.13;35.77;;;;;;;;;;5044304;28;20258;-68
2022/01/25 03:05:11;;;;;;;77.20;35.70;;;;;;;;;;5046972;28;20641;-67
2022/01/25 03:07:39;;;;;;;75.80;35.97;;;;;;;;;;5044373;28;20300;-68
2022/01/25 03:10:06;;;;;;;70.17;34.57;;;;;;;;;;5043793;28;20583;-68
2022/01/25 03:12:44;;;;;;;72.63;35.27;;;;;;;;;;5047176;28;20269;-68
2022/01/25 03:15:24;;;;;;;74.07;35.13;;;;;;;;;;5044692;28;20189;-67
2022/01/25 03:18:00;;;;;;;72.43;34.43;;;;;;;;;;5045342;28;20652;-68
2022/01/25 03:23:18;;;;;;;70.60;34.17;;;;;;;;;;5045479;28;20197;-68
2022/01/25 03:25:47;;;;;;;75.37;34.97;;;;;;;;;;5043435;28;20621;-68
2022/01/25 03:28:12;;;;;;;76.67;34.73;;;;;;;;;;5043492;28;20596;-67
2022/01/25 03:30:38;;;;;;;76.77;35.97;;;;;;;;;;5045204;28;20232;-68
2022/01/25 03:33:03;;;;;;;75.20;35.33;;;;;;;;;;5045308;28;20209;-67
2022/01/25 03:35:28;;;;;;;72.37;34.83;;;;;;;;;;5046898;28;20751;-67
2022/01/25 03:37:54;;;;;;;71.03;35.40;;;;;;;;;;5045639;28;20505;-67
2022/01/25 03:40:19;;;;;;;67.43;33.93;;;;;;;;;;5046574;28;20185;-68
2022/01/25 03:42:45;;;;;;;71.53;35.00;;;;;;;;;;5045052;28;20201;-68
2022/01/25 03:45:18;;;;;;;74.60;35.30;;;;;;;;;;5041824;28;20197;-68
2022/01/25 03:47:59;;;;;;;70.80;35.10;;;;;;;;;;5045126;28;20524;-67
2022/01/25 03:50:26;;;;;;;72.50;34.77;;;;;;;;;;5047622;28;20185;-68
2022/01/25 03:52:52;;;;;;;77.80;34.47;;;;;;;;;;5043957;28;20348;-68
2022/01/25 03:55:18;;;;;;;81.13;35.87;;;;;;;;;;5042346;28;20718;-68
2022/01/25 03:57:44;;;;;;;72.03;35.13;;;;;;;;;;5043461;28;20272;-68
2022/01/25 04:00:11;;;;;;;73.20;34.77;;;;;;;;;;5043701;28;20196;-68
2022/01/25 04:02:39;;;;;;;73.00;33.73;;;;;;;;;;5042585;28;20213;-68
2022/01/25 04:05:08;;;;;;;69.63;34.60;;;;;;;;;;5038024;28;20194;-69
2022/01/25 04:07:45;;;;;;;69.87;33.97;;;;;;;;;;5044362;28;20664;-67
2022/01/25 04:10:11;;;;;;;73.40;34.00;;;;;;;;;;5041072;28;20306;-67
2022/01/25 04:12:36;;;;;;;73.93;35.10;;;;;;;;;;5043916;28;20229;-68
2022/01/25 04:15:02;;;;;;;74.03;34.83;;;;;;;;;;5037336;28;20656;-68
2022/01/25 04:17:28;;;;;;;78.23;37.13;;;;;;;;;;5046588;28;20287;-68
2022/01/25 04:20:31;;;;;;;68.50;33.17;;;;;;;;;;5042979;28;20248;-68
2022/01/25 04:25:29;;;;;;;76.27;34.77;;;;;;;;;;5041957;28;20196;-68
2022/01/25 04:27:54;;;;;;;72.03;35.00;;;;;;;;;;5045181;28;20669;-68
2022/01/25 04:30:20;;;;;;;71.33;33.70;;;;;;;;;;5043592;28;20363;-68
2022/01/25 04:32:49;;;;;;;73.83;35.23;;;;;;;;;;5041418;28;20181;-68
2022/01/25 04:49:05;;;;;;;76.20;35.17;;;;;;;;;;5045991;28;20749;-68
2022/01/25 04:57:23;;;;;;;78.80;35.90;;;;;;;;;;5024806;28;20238;-68
2022/01/25 05:05:05;;;;;;;82.40;37.93;;;;;;;;;;5045379;28;20220;-68
2022/01/25 05:07:52;;;;;;;73.37;34.03;;;;;;;;;;5040642;28;20533;-68
2022/01/25 05:10:17;;;;;;;72.33;34.03;;;;;;;;;;5042476;28;20228;-68
2022/01/25 05:13:07;;;;;;;75.47;34.60;;;;;;;;;;5040684;28;20650;-67
2022/01/25 05:16:03;;;;;;;76.97;35.07;;;;;;;;;;5040572;28;20199;-68
2022/01/25 05:18:36;;;;;;;72.10;34.63;;;;;;;;;;5041546;28;20512;-67
2022/01/25 05:23:46;;;;;;;80.70;35.00;;;;;;;;;;5045061;28;20485;-67
2022/01/25 05:26:11;;;;;;;80.07;35.93;;;;;;;;;;5042802;28;20888;-68
2022/01/25 05:28:37;;;;;;;81.57;36.93;;;;;;;;;;5035694;28;20201;-67
2022/01/25 05:31:02;;;;;;;78.10;36.10;;;;;;;;;;5040476;28;20213;-68
2022/01/25 05:33:28;;;;;;;79.83;35.77;;;;;;;;;;5040256;28;20190;-67
2022/01/25 05:35:53;;;;;;;74.80;35.80;;;;;;;;;;5045192;28;20203;-68
2022/01/25 05:38:18;;;;;;;76.80;35.17;;;;;;;;;;5042532;28;20340;-67
2022/01/25 05:40:50;;;;;;;78.97;36.23;;;;;;;;;;5042405;28;20232;-68
2022/01/25 05:48:20;;;;;;;75.60;34.20;;;;;;;;;;5033343;28;20221;-67
2022/01/25 05:50:45;;;;;;;77.70;35.70;;;;;;;;;;5045605;28;20648;-67
2022/01/25 05:53:11;;;;;;;77.97;35.43;;;;;;;;;;5040245;28;20193;-67
2022/01/25 05:55:36;;;;;;;81.97;35.50;;;;;;;;;;5041974;28;20186;-68
2022/01/25 05:58:01;;;;;;;81.47;35.40;;;;;;;;;;5042482;28;20200;-67
2022/01/25 06:00:27;;;;;;;76.57;35.27;;;;;;;;;;5041331;28;20186;-68
2022/01/25 06:02:55;;;;;;;86.77;36.37;;;;;;;;;;5042291;28;20192;-68
2022/01/25 06:05:20;;;;;;;81.83;37.30;;;;;;;;;;5041335;28;20656;-68
2022/01/25 06:07:45;;;;;;;75.33;33.87;;;;;;;;;;5040040;28;20220;-68
2022/01/25 06:10:11;;;;;;;79.10;35.00;;;;;;;;;;5035075;28;20263;-68
2022/01/25 06:12:36;;;;;;;80.00;37.13;;;;;;;;;;5041446;28;20684;-68
2022/01/25 06:15:03;;;;;;;77.00;36.30;;;;;;;;;;5025545;28;20259;-69
2022/01/25 06:17:29;;;;;;;78.13;35.50;;;;;;;;;;5040850;28;20177;-67
2022/01/25 06:19:54;;;;;;;76.57;35.13;;;;;;;;;;5033712;28;20243;-68
2022/01/25 06:22:19;;;;;;;77.13;34.73;;;;;;;;;;5041085;28;20475;-68
2022/01/25 06:24:45;;;;;;;79.57;35.87;;;;;;;;;;5042087;28;20617;-67
2022/01/25 06:27:10;;;;;;;77.77;35.00;;;;;;;;;;5041246;28;20185;-68
2022/01/25 06:29:35;;;;;;;79.60;34.87;;;;;;;;;;5042562;28;20259;-67
2022/01/25 06:32:01;;;;;;;80.77;35.67;;;;;;;;;;5041270;28;20670;-68
2022/01/25 06:34:27;;;;;;;79.07;34.07;;;;;;;;;;5039654;28;20252;-68
2022/01/25 06:36:52;;;;;;;74.53;33.57;;;;;;;;;;5041513;28;20250;-68
2022/01/25 06:39:17;;;;;;;76.77;34.63;;;;;;;;;;5036231;28;20217;-68
2022/01/25 06:41:43;;;;;;;69.13;30.77;;;;;;;;;;5042889;28;20190;-67
2022/01/25 06:44:09;;;;;;;74.80;34.40;;;;;;;;;;5038352;28;20197;-68
2022/01/25 06:46:34;;;;;;;77.00;35.77;;;;;;;;;;5041934;28;20545;-68
2022/01/25 06:48:59;;;;;;;77.27;34.60;;;;;;;;;;5037118;28;20201;-68
2022/01/25 06:51:25;;;;;;;81.33;36.87;;;;;;;;;;5043515;28;20636;-68
2022/01/25 06:53:50;;;;;;;79.80;35.80;;;;;;;;;;5041011;28;20655;-68
2022/01/25 06:56:15;;;;;;;75.00;34.63;;;;;;;;;;5042914;28;20212;-67
2022/01/25 06:58:41;;;;;;;79.63;35.03;;;;;;;;;;5039422;28;20213;-68
2022/01/25 07:01:08;;;;;;;75.90;34.10;;;;;;;;;;5037861;28;20205;-68
2022/01/25 07:03:33;;;;;;;75.17;34.20;;;;;;;;;;5042141;28;20200;-68
2022/01/25 07:05:59;;;;;;;79.60;34.93;;;;;;;;;;5037147;28;20419;-68
2022/01/25 07:08:24;;;;;;;77.67;34.60;;;;;;;;;;5041350;28;20201;-68
2022/01/25 07:10:49;;;;;;;74.67;35.33;;;;;;;;;;5042672;28;20221;-68
2022/01/25 07:13:15;;;;;;;78.97;33.40;;;;;;;;;;5049502;28;20200;-68
2022/01/25 07:15:40;;;;;;;81.47;34.77;;;;;;;;;;5045398;28;20185;-68
2022/01/25 07:18:05;;;;;;;78.40;33.90;;;;;;;;;;5044828;28;20235;-68
2022/01/25 07:20:31;;;;;;;75.43;31.97;;;;;;;;;;5045421;28;20707;-68
2022/01/25 07:22:56;;;;;;;75.53;32.90;;;;;;;;;;5044164;28;20213;-68
2022/01/25 07:25:22;;;;;;;75.00;32.87;;;;;;;;;;5043058;28;20196;-68
2022/01/25 07:27:48;;;;;;;78.53;33.80;;;;;;;;;;5043652;28;20205;-68
2022/01/25 07:30:13;;;;;;;71.53;32.43;;;;;;;;;;5037320;28;20209;-68
2022/01/25 07:32:38;;;;;;;75.07;33.63;;;;;;;;;;5041300;28;20684;-68
2022/01/25 07:35:05;;;;;;;73.87;32.33;;;;;;;;;;5041892;28;20189;-68
2022/01/25 07:37:30;;;;;;;75.03;33.27;;;;;;;;;;5044132;28;20271;-68
2022/01/25 07:39:57;;;;;;;71.27;32.77;;;;;;;;;;5041807;28;20648;-68
2022/01/25 07:42:22;;;;;;;70.67;32.00;;;;;;;;;;5046326;28;20238;-68
2022/01/25 07:44:48;;;;;;;71.43;33.00;;;;;;;;;;5045204;28;20196;-68
2022/01/25 07:47:13;;;;;;;77.50;33.20;;;;;;;;;;5045209;28;20205;-68
2022/01/25 07:49:39;;;;;;;68.77;30.77;;;;;;;;;;5041804;28;20251;-68
2022/01/25 07:52:05;;;;;;;69.57;30.77;;;;;;;;;;5045794;28;20197;-68
2022/01/25 07:54:30;;;;;;;74.17;31.80;;;;;;;;;;5044743;28;20276;-68
2022/01/25 07:56:56;;;;;;;68.67;30.83;;;;;;;;;;5046043;28;20197;-68
2022/01/25 07:59:21;;;;;;;69.13;31.67;;;;;;;;;;5044313;28;20275;-68
2022/01/25 08:01:48;;;;;;;70.53;31.63;;;;;;;;;;5043710;28;20244;-68
2022/01/25 08:04:14;;;;;;;72.83;31.37;;;;;;;;;;5046931;28;20182;-68
2022/01/25 08:06:40;;;;;;;74.90;32.10;;;;;;;;;;5043865;28;20561;-68
2022/01/25 08:09:07;;;;;;;68.90;30.47;;;;;;;;;;5044065;28;20277;-68
2022/01/25 08:11:33;;;;;;;72.27;31.53;;;;;;;;;;5044285;28;20193;-68
2022/01/25 08:14:12;;;;;;;65.33;30.63;;;;;;;;;;5043961;28;20181;-68
2022/01/25 08:16:43;;;;;;;71.63;31.80;;;;;;;;;;5041101;28;20185;-68
2022/01/25 08:19:08;;;;;;;71.33;30.27;;;;;;;;;;5058106;28;20170;-68
2022/01/25 08:21:36;;;;;;;66.53;30.43;;;;;;;;;;5039627;28;20201;-68
2022/01/25 08:24:02;;;;;;;72.17;31.77;;;;;;;;;;5045084;28;20185;-68
2022/01/25 08:26:27;;;;;;;74.93;31.10;;;;;;;;;;5041517;28;20553;-68
2022/01/25 08:28:52;;;;;;;68.57;30.47;;;;;;;;;;5044846;28;20585;-68
2022/01/25 08:31:19;;;;;;;71.50;30.67;;;;;;;;;;5043779;28;20774;-68
2022/01/25 08:33:44;;;;;;;69.30;31.90;;;;;;;;;;5044642;28;20193;-68
2022/01/25 08:36:10;;;;;;;72.83;31.77;;;;;;;;;;5041793;28;20243;-67
2022/01/25 08:38:35;;;;;;;73.30;31.37;;;;;;;;;;5044354;28;20181;-67
2022/01/25 08:41:00;;;;;;;70.53;32.67;;;;;;;;;;5044217;28;20185;-67
2022/01/25 08:43:26;;;;;;;75.70;32.10;;;;;;;;;;5046957;28;20753;-67
2022/01/25 08:45:51;;;;;;;75.57;31.97;;;;;;;;;;5043179;28;20209;-67
2022/01/25 08:48:17;;;;;;;70.50;31.07;;;;;;;;;;5043684;28;20259;-68
2022/01/25 08:50:42;;;;;;;65.73;29.77;;;;;;;;;;5042852;28;20618;-68
2022/01/25 08:53:09;;;;;;;70.93;30.73;;;;;;;;;;5045058;28;20177;-67
2022/01/25 08:55:34;;;;;;;70.00;31.10;;;;;;;;;;5043596;28;20178;-67
2022/01/25 08:58:00;;;;;;;71.67;30.67;;;;;;;;;;5043553;28;20714;-68
2022/01/25 09:00:25;;;;;;;74.67;32.30;;;;;;;;;;5041065;28;20315;-68
2022/01/25 09:02:50;;;;;;;67.30;29.27;;;;;;;;;;5042892;28;20188;-67
2022/01/25 09:05:16;;;;;;;70.80;31.67;;;;;;;;;;5051351;28;20769;-67
2022/01/25 09:07:41;;;;;;;71.30;32.07;;;;;;;;;;5045925;28;20552;-68
2022/01/25 09:10:08;;;;;;;71.30;30.73;;;;;;;;;;5042417;28;20275;-68
2022/01/25 09:12:34;;;;;;;71.50;31.57;;;;;;;;;;5044507;28;20529;-67
2022/01/25 09:14:59;;;;;;;67.40;29.97;;;;;;;;;;5043619;28;21616;-67
2022/01/25 09:17:25;;;;;;;70.43;31.83;;;;;;;;;;5044718;28;20178;-67
2022/01/25 09:19:50;;;;;;;69.37;30.40;;;;;;;;;;5042237;28;20187;-67
2022/01/25 09:22:16;;;;;;;73.17;31.27;;;;;;;;;;5042554;28;20185;-68
2022/01/25 09:24:41;;;;;;;72.27;30.67;;;;;;;;;;5046225;28;20192;-68
2022/01/25 09:27:08;;;;;;;65.13;30.57;;;;;;;;;;5041078;28;20235;-67
2022/01/25 09:29:34;;;;;;;69.80;31.10;;;;;;;;;;5046645;28;20225;-68
2022/01/25 09:31:59;;;;;;;79.20;32.23;;;;;;;;;;5043141;28;20243;-68
2022/01/25 09:34:26;;;;;;;75.30;31.53;;;;;;;;;;5042483;28;20342;-67
2022/01/25 09:36:52;;;;;;;68.80;30.53;;;;;;;;;;5047853;28;20178;-67
2022/01/25 09:39:18;;;;;;;67.30;31.03;;;;;;;;;;5041922;28;20619;-67
2022/01/25 09:41:43;;;;;;;70.80;30.27;;;;;;;;;;5044854;28;20261;-67
2022/01/25 09:44:09;;;;;;;73.27;32.03;;;;;;;;;;5045620;28;20650;-66
2022/01/25 09:46:39;;;;;;;69.97;31.17;;;;;;;;;;5041514;28;20260;-67
2022/01/25 09:49:05;;;;;;;69.33;30.57;;;;;;;;;;5040912;28;20210;-67
2022/01/25 09:51:31;;;;;;;72.47;31.33;;;;;;;;;;5044214;28;20193;-68
2022/01/25 09:53:56;;;;;;;69.13;30.37;;;;;;;;;;5040117;28;21194;-67
2022/01/25 09:56:21;;;;;;;71.87;31.47;;;;;;;;;;5040088;28;20189;-67
2022/01/25 09:58:47;;;;;;;70.73;31.23;;;;;;;;;;5044545;28;20181;-68
2022/01/25 10:01:14;;;;;;;69.03;30.40;;;;;;;;;;5042517;28;20517;-68
2022/01/25 10:03:42;;;;;;;66.77;29.73;;;;;;;;;;5039228;28;20235;-68
2022/01/25 10:06:17;;;;;;;66.20;29.87;;;;;;;;;;5040863;28;20189;-69
2022/01/25 10:08:45;;;;;;;66.53;29.87;;;;;;;;;;5041788;28;20189;-68
2022/01/25 10:11:13;;;;;;;67.20;28.23;;;;;;;;;;5042131;28;20739;-68
2022/01/25 10:13:40;;;;;;;66.17;28.63;;;;;;;;;;5042257;28;20223;-67
2022/01/25 10:16:07;;;;;;;61.97;28.33;;;;;;;;;;5041086;28;20186;-67
2022/01/25 10:18:45;;;;;;;68.57;29.37;;;;;;;;;;5043405;28;20173;-67
2022/01/25 10:21:15;;;;;;;61.07;27.93;;;;;;;;;;5040347;28;20223;-67
2022/01/25 10:23:57;;;;;;;64.13;29.80;;;;;;;;;;5044414;28;20189;-66
2022/01/25 10:26:23;;;;;;;61.97;28.90;;;;;;;;;;5030684;28;20189;-67
2022/01/25 10:28:51;;;;;;;65.67;28.53;;;;;;;;;;5038618;28;20548;-67
2022/01/25 10:31:16;;;;;;;66.67;27.93;;;;;;;;;;5041712;28;20213;-67
2022/01/25 10:33:51;;;;;;;66.57;28.07;;;;;;;;;;5036746;28;20215;-68
2022/01/25 10:36:19;;;;;;;66.43;28.30;;;;;;;;;;5043914;28;20224;-68
2022/01/25 10:38:48;;;;;;;66.97;28.97;;;;;;;;;;5041321;28;20613;-68
2022/01/25 10:41:25;;;;;;;66.90;29.33;;;;;;;;;;5042176;28;20184;-68
2022/01/25 10:43:53;;;;;;;60.17;26.43;;;;;;;;;;5042157;28;20259;-67
2022/01/25 10:46:30;;;;;;;57.87;26.43;;;;;;;;;;5048240;28;20189;-68
2022/01/25 10:49:00;;;;;;;64.07;27.97;;;;;;;;;;5043435;28;20185;-68
2022/01/25 10:51:38;;;;;;;62.20;27.20;;;;;;;;;;5044471;28;20193;-68
2022/01/25 10:54:14;;;;;;;60.37;26.27;;;;;;;;;;5048466;28;20274;-68
2022/01/25 10:56:46;;;;;;;64.07;28.20;;;;;;;;;;5047714;28;20189;-67
2022/01/25 10:59:16;;;;;;;67.27;28.40;;;;;;;;;;5046307;28;20601;-67
2022/01/25 11:01:56;;;;;;;64.57;29.07;;;;;;;;;;5043917;28;20197;-67
2022/01/25 11:04:29;;;;;;;65.37;28.67;;;;;;;;;;5046310;28;20303;-67
2022/01/25 11:07:00;;;;;;;61.10;27.87;;;;;;;;;;5041313;28;20518;-67
2022/01/25 11:09:29;;;;;;;70.37;29.70;;;;;;;;;;5044970;28;20241;-68
2022/01/25 11:11:56;;;;;;;63.17;28.87;;;;;;;;;;5041579;28;20185;-68
2022/01/25 11:17:07;;;;;;;67.63;27.97;;;;;;;;;;5044442;28;20193;-68
2022/01/25 11:19:32;;;;;;;67.53;28.50;;;;;;;;;;5044682;28;20190;-68
2022/01/25 11:21:59;;;;;;;63.00;26.10;;;;;;;;;;5045681;28;20287;-67
2022/01/25 11:24:25;;;;;;;62.67;27.17;;;;;;;;;;5045990;28;20280;-67
2022/01/25 11:26:53;;;;;;;62.77;27.17;;;;;;;;;;5044915;28;20238;-67
2022/01/25 11:29:19;;;;;;;63.87;27.63;;;;;;;;;;5043468;28;20327;-68
2022/01/25 11:32:00;;;;;;;64.00;28.67;;;;;;;;;;5047638;28;20280;-68
2022/01/25 11:34:27;;;;;;;56.77;26.87;;;;;;;;;;5045727;28;20173;-67
2022/01/25 11:36:58;;;;;;;61.77;26.70;;;;;;;;;;5044906;28;20769;-68
2022/01/25 11:39:27;;;;;;;61.77;27.10;;;;;;;;;;5048117;28;20191;-67
2022/01/25 11:42:10;;;;;;;65.73;27.67;;;;;;;;;;5047493;28;20193;-67
2022/01/25 11:44:46;;;;;;;59.50;26.87;;;;;;;;;;5045537;28;20235;-68
2022/01/25 11:47:16;;;;;;;66.37;28.13;;;;;;;;;;5044134;28;20192;-67
2022/01/25 11:50:01;;;;;;;63.30;27.53;;;;;;;;;;5046904;28;20193;-68
2022/01/25 11:52:30;;;;;;;66.03;27.50;;;;;;;;;;5044039;28;20173;-68
2022/01/25 11:55:20;;;;;;;65.70;28.20;;;;;;;;;;5046843;28;20213;-68
2022/01/25 11:57:59;;;;;;;72.40;30.47;;;;;;;;;;5034314;28;20299;-67
2022/01/25 12:00:52;;;;;;;65.57;27.60;;;;;;;;;;5040600;28;20527;-68
2022/01/25 12:03:40;;;;;;;61.97;26.00;;;;;;;;;;5044252;28;20212;-68
2022/01/25 12:06:21;;;;;;;62.33;25.27;;;;;;;;;;5040441;28;20517;-68
2022/01/25 12:09:31;;;;;;;62.87;26.43;;;;;;;;;;5038614;28;20220;-68
2022/01/25 12:12:07;;;;;;;62.73;26.47;;;;;;;;;;5043552;28;20200;-67
2022/01/25 12:14:49;;;;;;;71.07;26.90;;;;;;;;;;5041017;28;20555;-67
2022/01/25 12:17:18;;;;;;;63.73;26.43;;;;;;;;;;5044861;28;20173;-68
2022/01/25 12:19:50;;;;;;;65.97;27.87;;;;;;;;;;5043869;28;20194;-68
2022/01/25 12:22:25;;;;;;;61.43;25.37;;;;;;;;;;5037583;28;20190;-68
2022/01/25 12:25:32;;;;;;;62.03;26.50;;;;;;;;;;5041664;28;20244;-68
2022/01/25 12:27:56;;;;;;;76.17;28.40;;;;;;;;;;5037344;28;20287;-68
2022/01/25 12:30:39;;;;;;;68.57;28.23;;;;;;;;;;5042650;28;20232;-68
2022/01/25 12:33:08;;;;;;;64.83;25.43;;;;;;;;;;5042949;28;20224;-67
2022/01/25 12:35:54;;;;;;;58.30;25.90;;;;;;;;;;5043979;28;20201;-68
2022/01/25 12:38:21;;;;;;;62.33;26.73;;;;;;;;;;5044326;28;20211;-68
2022/01/25 12:40:50;;;;;;;60.60;26.50;;;;;;;;;;5042729;28;20189;-69
2022/01/25 12:43:19;;;;;;;65.23;26.93;;;;;;;;;;5038279;28;20516;-68
2022/01/25 12:45:58;;;;;;;69.97;27.03;;;;;;;;;;5042181;28;20216;-68
2022/01/25 12:48:28;;;;;;;63.03;25.30;;;;;;;;;;5042492;28;20189;-68
2022/01/25 12:50:55;;;;;;;64.70;25.97;;;;;;;;;;5042178;28;20193;-67
2022/01/25 12:53:24;;;;;;;63.37;26.73;;;;;;;;;;5045099;28;20310;-67
2022/01/25 12:55:52;;;;;;;57.70;24.40;;;;;;;;;;5039673;28;20625;-67
2022/01/25 12:58:23;;;;;;;62.27;26.13;;;;;;;;;;5044190;28;20216;-67
2022/01/25 13:00:51;;;;;;;60.87;24.60;;;;;;;;;;5040056;28;20264;-67
2022/01/25 13:03:26;;;;;;;61.00;25.63;;;;;;;;;;5044147;28;20194;-67
2022/01/25 13:06:12;;;;;;;62.70;25.13;;;;;;;;;;5043582;28;20260;-67
2022/01/25 13:09:06;;;;;;;55.30;23.60;;;;;;;;;;5041116;28;20236;-68
2022/01/25 13:16:38;;;;;;;61.40;24.13;;;;;;;;;;5045224;28;20196;-68
2022/01/25 13:19:03;;;;;;;62.50;23.87;;;;;;;;;;5041007;28;20192;-68
2022/01/25 13:21:40;;;;;;;55.80;23.13;;;;;;;;;;5044197;28;20185;-68
2022/01/25 13:24:15;;;;;;;57.47;23.20;;;;;;;;;;5041682;28;20197;-68
2022/01/25 13:26:51;;;;;;;60.20;23.40;;;;;;;;;;5037712;28;20314;-66
2022/01/25 13:30:40;;;;;;;56.17;23.17;;;;;;;;;;5042763;28;20520;-67
2022/01/25 13:32:12;;;;;;;58.60;23.83;;;;;;;;;;5040462;28;20212;-67
2022/01/25 13:34:38;;;;;;;59.37;23.43;;;;;;;;;;5042906;28;20185;-67
2022/01/25 13:37:03;;;;;;;54.30;22.80;;;;;;;;;;5037015;28;20196;-67
2022/01/25 13:39:30;;;;;;;56.83;23.20;;;;;;;;;;5038204;28;20197;-66
2022/01/25 13:42:03;;;;;;;55.90;23.10;;;;;;;;;;5039357;28;20564;-68
2022/01/25 13:47:12;;;;;;;60.43;22.83;;;;;;;;;;5042410;28;20211;-67
2022/01/25 13:49:39;;;;;;;54.53;22.10;;;;;;;;;;5041875;28;20209;-67
2022/01/25 13:52:05;;;;;;;54.60;22.93;;;;;;;;;;5042784;28;20212;-67
2022/01/25 13:54:30;;;;;;;53.43;22.57;;;;;;;;;;5042803;28;20189;-67
2022/01/25 13:56:56;;;;;;;58.10;23.23;;;;;;;;;;5040895;28;20629;-67
2022/01/25 13:59:24;;;;;;;56.57;23.53;;;;;;;;;;5043754;28;20220;-67
2022/01/25 14:01:50;;;;;;;62.67;22.77;;;;;;;;;;5037963;28;20238;-68
2022/01/25 14:04:18;;;;;;;56.27;22.17;;;;;;;;;;5040013;28;20641;-67
2022/01/25 14:06:49;;;;;;;61.07;24.33;;;;;;;;;;5043287;28;20189;-67
2022/01/25 14:09:23;;;;;;;55.30;22.20;;;;;;;;;;5043234;28;20235;-67
2022/01/25 14:21:33;;;;;;;56.53;23.10;;;;;;;;;;5041045;28;20276;-67
2022/01/25 14:23:33;;;;;;;52.17;22.20;;;;;;;;;;5041909;28;20295;-68
2022/01/25 14:26:06;;;;;;;56.83;22.70;;;;;;;;;;5043828;28;20246;-68
2022/01/25 14:28:38;;;;;;;54.43;22.70;;;;;;;;;;5044483;28;20205;-67
2022/01/25 14:31:04;;;;;;;57.57;23.27;;;;;;;;;;5043472;28;20288;-67
2022/01/25 14:33:34;;;;;;;57.17;23.63;;;;;;;;;;5046374;28;20189;-67
2022/01/25 14:36:04;;;;;;;59.00;23.70;;;;;;;;;;5045129;28;20403;-67
2022/01/25 14:38:36;;;;;;;59.33;23.20;;;;;;;;;;5041932;28;20181;-68
2022/01/25 14:41:06;;;;;;;59.30;22.90;;;;;;;;;;5048899;28;20189;-67
2022/01/25 14:43:38;;;;;;;59.00;23.27;;;;;;;;;;5044644;28;20192;-67
2022/01/25 14:46:18;;;;;;;56.30;23.20;;;;;;;;;;5045065;28;20779;-67
2022/01/25 14:48:46;;;;;;;55.93;22.33;;;;;;;;;;5044681;28;20542;-67
2022/01/25 14:51:12;;;;;;;53.67;22.17;;;;;;;;;;5045686;28;20197;-67
2022/01/25 14:53:43;;;;;;;56.60;23.57;;;;;;;;;;5043005;28;20193;-67
2022/01/25 14:56:12;;;;;;;55.37;22.87;;;;;;;;;;5044717;28;20207;-67
2022/01/25 14:59:23;;;;;;;58.77;24.23;;;;;;;;;;5046408;28;20265;-67
2022/01/25 15:01:31;;;;;;;55.40;23.20;;;;;;;;;;5045542;28;20673;-67
2022/01/25 15:03:57;;;;;;;63.93;24.23;;;;;;;;;;5043099;28;20235;-68
2022/01/25 15:06:23;;;;;;;48.47;20.50;;;;;;;;;;5044309;28;20181;-68
2022/01/25 15:08:49;;;;;;;54.93;21.47;;;;;;;;;;5042337;28;20208;-68
2022/01/25 15:11:15;;;;;;;52.67;20.70;;;;;;;;;;5046074;28;20233;-68
2022/01/25 15:13:40;;;;;;;52.53;21.47;;;;;;;;;;5044061;28;20197;-68
2022/01/25 15:16:06;;;;;;;52.57;21.40;;;;;;;;;;5045306;28;20280;-68
2022/01/25 15:18:34;;;;;;;61.00;22.80;;;;;;;;;;5045106;28;20283;-68
2022/01/25 15:21:04;;;;;;;53.13;22.70;;;;;;;;;;5044674;28;20668;-68
2022/01/25 15:23:32;;;;;;;57.30;22.93;;;;;;;;;;5043285;28;20200;-67
2022/01/25 15:26:01;;;;;;;54.67;21.63;;;;;;;;;;5047942;28;21121;-67
2022/01/25 15:28:36;;;;;;;53.07;21.73;;;;;;;;;;5040831;28;20305;-68
2022/01/25 15:31:06;;;;;;;56.23;21.53;;;;;;;;;;5045464;28;20279;-67
2022/01/25 15:33:32;;;;;;;60.73;22.47;;;;;;;;;;5041972;28;20709;-68
2022/01/25 15:35:59;;;;;;;53.37;21.83;;;;;;;;;;5047149;28;20192;-68
2022/01/25 15:38:25;;;;;;;52.20;20.57;;;;;;;;;;5040916;28;20190;-67
2022/01/25 15:40:50;;;;;;;52.27;20.73;;;;;;;;;;5044189;28;20212;-67
2022/01/25 15:43:22;;;;;;;53.93;21.07;;;;;;;;;;5045153;28;20185;-68
2022/01/25 15:46:05;;;;;;;52.20;19.70;;;;;;;;;;5046138;28;20188;-68
2022/01/25 15:48:32;;;;;;;45.33;20.13;;;;;;;;;;5043747;28;20210;-68
2022/01/25 15:50:58;;;;;;;51.17;20.73;;;;;;;;;;5043225;28;20200;-68
2022/01/25 15:53:24;;;;;;;53.77;21.83;;;;;;;;;;5044834;28;20242;-68
2022/01/25 15:55:50;;;;;;;52.20;21.80;;;;;;;;;;5039447;28;20256;-67
2022/01/25 15:58:16;;;;;;;50.17;20.63;;;;;;;;;;5037709;28;20189;-68
2022/01/25 16:00:47;;;;;;;52.87;20.07;;;;;;;;;;5040106;28;20178;-68
2022/01/25 16:03:20;;;;;;;52.23;21.50;;;;;;;;;;5038069;28;20627;-68
2022/01/25 16:05:46;;;;;;;56.17;23.40;;;;;;;;;;5041884;28;20196;-68
2022/01/25 16:08:14;;;;;;;54.20;21.43;;;;;;;;;;5039578;28;20201;-68
2022/01/25 16:10:42;;;;;;;55.03;21.87;;;;;;;;;;5044229;28;20228;-68
2022/01/25 16:13:07;;;;;;;55.50;20.57;;;;;;;;;;5043604;28;20584;-68
2022/01/25 16:15:33;;;;;;;53.33;22.57;;;;;;;;;;5042976;28;20204;-67
2022/01/25 16:17:58;;;;;;;55.70;21.33;;;;;;;;;;5040318;28;20224;-67
2022/01/25 16:20:26;;;;;;;50.50;20.67;;;;;;;;;;5044889;28;20190;-68
2022/01/25 16:22:51;;;;;;;52.10;21.13;;;;;;;;;;5044785;28;20196;-68
2022/01/25 16:25:17;;;;;;;51.30;21.27;;;;;;;;;;5043328;28;20193;-68
2022/01/25 16:27:43;;;;;;;61.47;22.80;;;;;;;;;;5040384;28;20182;-68
2022/01/25 16:30:09;;;;;;;57.00;21.67;;;;;;;;;;5040433;28;20588;-68
2022/01/25 16:32:36;;;;;;;50.07;20.83;;;;;;;;;;5041895;28;20238;-67